createdAt,value
2018-02-07T00:00:13.337Z,1.50
2018-02-07T00:01:13.326Z,1.38
2018-02-07T00:03:09.772Z,1.46
2018-02-07T00:04:09.241Z,1.44
2018-02-07T00:06:05.704Z,1.57
2018-02-07T00:07:05.151Z,1.47
2018-02-07T00:09:01.071Z,1.54
2018-02-07T00:10:01.073Z,1.44
2018-02-07T00:11:57.512Z,1.44
2018-02-07T00:12:56.983Z,1.38
2018-02-07T00:14:52.429Z,1.36
2018-02-07T00:15:51.396Z,1.40
2018-02-07T00:17:45.792Z,1.46
2018-02-07T00:18:45.792Z,1.47
2018-02-07T00:20:42.254Z,1.56
2018-02-07T00:21:41.705Z,1.46
2018-02-07T00:23:37.647Z,1.42
2018-02-07T00:24:37.627Z,1.64
2018-02-07T00:26:35.667Z,1.47
2018-02-07T00:27:36.572Z,1.42
2018-02-07T00:29:33.111Z,1.40
2018-02-07T00:30:31.556Z,1.44
2018-02-07T00:32:26.503Z,1.50
2018-02-07T00:33:25.983Z,1.50
2018-02-07T00:35:23.430Z,1.48
2018-02-07T00:36:21.889Z,1.47
2018-02-07T00:38:17.833Z,1.48
2018-02-07T00:39:17.787Z,1.64
2018-02-07T00:41:19.244Z,1.54
2018-02-07T00:42:19.087Z,1.50
2018-02-07T00:44:16.029Z,1.53
2018-02-07T00:45:15.062Z,1.61
2018-02-07T00:47:11.209Z,1.53
2018-02-07T00:48:10.995Z,1.57
2018-02-07T00:50:05.379Z,1.54
2018-02-07T00:51:05.404Z,1.60
2018-02-07T00:53:01.833Z,1.53
2018-02-07T00:54:01.291Z,1.58
2018-02-07T00:55:57.260Z,1.57
2018-02-07T00:56:57.350Z,1.64
2018-02-07T00:58:54.157Z,1.57
2018-02-07T00:59:53.160Z,1.57
2018-02-07T01:01:47.596Z,1.58
2018-02-07T01:02:48.184Z,1.44
2018-02-07T01:04:43.515Z,1.50
2018-02-07T01:05:43.486Z,1.44
2018-02-07T01:07:39.395Z,1.48
2018-02-07T01:08:40.364Z,1.40
2018-02-07T01:10:36.346Z,1.48
2018-02-07T01:11:35.319Z,1.47
2018-02-07T01:13:32.335Z,1.60
2018-02-07T01:14:32.210Z,1.53
2018-02-07T01:16:27.711Z,1.58
2018-02-07T01:17:27.707Z,1.60
2018-02-07T01:19:23.111Z,1.57
2018-02-07T01:20:23.110Z,1.57
2018-02-07T01:22:20.536Z,1.61
2018-02-07T01:23:19.011Z,1.66
2018-02-07T01:25:14.999Z,1.66
2018-02-07T01:26:14.967Z,1.56
2018-02-07T01:28:10.902Z,1.61
2018-02-07T01:29:11.444Z,1.50
2018-02-07T01:31:05.274Z,1.54
2018-02-07T01:32:05.257Z,1.53
2018-02-07T01:33:59.690Z,1.57
2018-02-07T01:34:59.687Z,1.53
2018-02-07T01:36:56.121Z,1.65
2018-02-07T01:37:56.131Z,1.65
2018-02-07T01:39:50.089Z,1.60
2018-02-07T01:40:50.018Z,1.57
2018-02-07T01:42:45.976Z,1.54
2018-02-07T01:43:45.934Z,1.51
2018-02-07T01:45:43.397Z,1.56
2018-02-07T01:46:41.860Z,1.56
2018-02-07T01:48:36.316Z,1.56
2018-02-07T01:49:36.258Z,1.51
2018-02-07T01:51:32.198Z,1.56
2018-02-07T01:52:32.174Z,1.60
2018-02-07T01:54:27.622Z,1.54
2018-02-07T01:55:26.637Z,1.61
2018-02-07T01:57:21.540Z,1.64
2018-02-07T01:58:21.010Z,1.57
2018-02-07T02:00:17.463Z,1.56
2018-02-07T02:01:16.949Z,1.58
2018-02-07T02:03:11.368Z,1.53
2018-02-07T02:04:11.876Z,1.65
2018-02-07T02:06:07.307Z,1.57
2018-02-07T02:07:07.285Z,1.53
2018-02-07T02:09:05.244Z,1.42
2018-02-07T02:10:04.065Z,1.51
2018-02-07T02:11:58.524Z,1.56
2018-02-07T02:12:58.477Z,1.57
2018-02-07T02:14:54.420Z,1.53
2018-02-07T02:15:54.397Z,1.50
2018-02-07T02:17:47.791Z,1.48
2018-02-07T02:18:47.793Z,1.50
2018-02-07T02:20:42.751Z,1.50
2018-02-07T02:21:42.218Z,1.44
2018-02-07T02:23:36.634Z,1.38
2018-02-07T02:24:37.164Z,1.44
2018-02-07T02:26:31.575Z,1.42
2018-02-07T02:27:31.043Z,1.38
2018-02-07T02:29:26.975Z,1.39
2018-02-07T02:30:26.950Z,1.35
2018-02-07T02:32:21.366Z,1.40
2018-02-07T02:33:21.366Z,1.33
2018-02-07T02:35:16.329Z,1.42
2018-02-07T02:36:15.764Z,1.35
2018-02-07T02:38:11.663Z,1.29
2018-02-07T02:39:11.652Z,1.26
2018-02-07T02:41:06.585Z,1.21
2018-02-07T02:42:06.048Z,1.22
2018-02-07T02:44:00.992Z,1.15
2018-02-07T02:45:00.478Z,1.10
2018-02-07T02:46:54.940Z,1.17
2018-02-07T02:47:54.912Z,1.14
2018-02-07T02:49:48.848Z,1.03
2018-02-07T02:50:48.334Z,1.08
2018-02-07T02:52:44.785Z,1.00
2018-02-07T02:53:44.772Z,1.03
2018-02-07T02:55:39.682Z,1.10
2018-02-07T02:56:38.674Z,1.03
2018-02-07T02:58:33.603Z,1.12
2018-02-07T02:59:33.057Z,1.12
2018-02-07T03:01:55.017Z,1.20
2018-02-07T03:04:45.547Z,1.18
2018-02-07T03:06:40.409Z,1.15
2018-02-07T03:07:40.401Z,1.22
2018-02-07T03:09:36.320Z,1.24
2018-02-07T03:10:36.835Z,1.15
2018-02-07T03:12:32.756Z,1.15
2018-02-07T03:13:32.215Z,1.12
2018-02-07T03:15:27.656Z,1.28
2018-02-07T03:16:26.640Z,1.22
2018-02-07T03:18:21.095Z,1.24
2018-02-07T03:19:21.034Z,1.17
2018-02-07T03:21:16.929Z,1.18
2018-02-07T03:22:16.926Z,1.22
2018-02-07T03:25:00.486Z,1.18
2018-02-07T03:26:00.445Z,1.20
2018-02-07T03:27:54.850Z,1.17
2018-02-07T03:28:54.841Z,1.26
2018-02-07T03:30:51.797Z,1.12
2018-02-07T03:31:51.292Z,1.18
2018-02-07T03:33:47.222Z,1.32
2018-02-07T03:34:47.210Z,1.29
2018-02-07T03:36:41.620Z,1.32
2018-02-07T03:37:41.658Z,1.32
2018-02-07T03:39:37.007Z,1.26
2018-02-07T03:40:37.005Z,1.32
2018-02-07T03:42:32.956Z,1.36
2018-02-07T03:43:32.916Z,1.35
2018-02-07T03:45:28.877Z,1.30
2018-02-07T03:46:29.348Z,1.33
2018-02-07T03:48:24.731Z,1.21
2018-02-07T03:49:26.423Z,1.26
2018-02-07T03:51:20.664Z,1.22
2018-02-07T03:52:20.646Z,1.15
2018-02-07T03:54:14.120Z,1.29
2018-02-07T03:55:14.050Z,1.30
2018-02-07T03:57:11.017Z,1.20
2018-02-07T03:58:10.494Z,1.14
2018-02-07T04:00:06.914Z,1.14
2018-02-07T04:01:06.407Z,1.18
2018-02-07T04:03:00.294Z,1.21
2018-02-07T04:04:00.809Z,1.21
2018-02-07T04:05:55.245Z,1.12
2018-02-07T04:06:54.700Z,1.14
2018-02-07T04:08:49.155Z,1.18
2018-02-07T04:09:49.115Z,1.20
2018-02-07T04:11:44.049Z,1.20
2018-02-07T04:12:44.057Z,1.21
2018-02-07T04:14:40.004Z,1.28
2018-02-07T04:15:39.437Z,1.21
2018-02-07T04:17:35.872Z,1.18
2018-02-07T04:18:35.878Z,1.21
2018-02-07T04:20:30.313Z,1.26
2018-02-07T04:21:30.307Z,1.26
2018-02-07T04:23:26.720Z,1.20
2018-02-07T04:24:26.225Z,1.21
2018-02-07T04:26:20.636Z,1.18
2018-02-07T04:27:20.107Z,1.18
2018-02-07T04:29:14.560Z,1.21
2018-02-07T04:30:14.536Z,1.22
2018-02-07T04:32:08.464Z,1.12
2018-02-07T04:33:07.943Z,1.17
2018-02-07T04:35:02.353Z,1.17
2018-02-07T04:36:02.327Z,1.07
2018-02-07T04:37:56.279Z,1.04
2018-02-07T04:38:55.725Z,0.99
2018-02-07T04:40:52.682Z,1.02
2018-02-07T04:41:52.172Z,0.96
2018-02-07T04:43:47.603Z,0.92
2018-02-07T04:44:47.572Z,0.85
2018-02-07T04:46:41.972Z,0.82
2018-02-07T04:47:42.515Z,0.75
2018-02-07T04:49:37.898Z,0.86
2018-02-07T04:50:38.420Z,0.81
2018-02-07T04:52:31.343Z,0.72
2018-02-07T04:53:31.293Z,0.72
2018-02-07T04:55:27.250Z,0.72
2018-02-07T04:56:27.226Z,0.72
2018-02-07T04:58:23.662Z,0.66
2018-02-07T04:59:23.136Z,0.64
2018-02-07T05:01:17.591Z,0.61
2018-02-07T05:02:17.546Z,0.60
2018-02-07T05:04:12.477Z,0.60
2018-02-07T05:05:11.949Z,0.61
2018-02-07T05:07:07.394Z,0.58
2018-02-07T05:08:06.905Z,0.48
2018-02-07T05:10:02.812Z,0.45
2018-02-07T05:11:02.290Z,0.41
2018-02-07T05:12:59.239Z,0.52
2018-02-07T05:13:58.731Z,0.50
2018-02-07T05:15:54.162Z,0.47
2018-02-07T05:16:54.650Z,0.44
2018-02-07T05:18:51.564Z,0.57
2018-02-07T05:19:50.033Z,0.47
2018-02-07T05:21:46.986Z,0.42
2018-02-07T05:22:46.483Z,0.41
2018-02-07T05:24:39.892Z,0.48
2018-02-07T05:25:39.359Z,0.47
2018-02-07T05:27:35.350Z,0.37
2018-02-07T05:28:35.294Z,0.41
2018-02-07T05:30:32.229Z,0.39
2018-02-07T05:31:31.181Z,0.39
2018-02-07T05:33:28.136Z,0.21
2018-02-07T05:34:27.123Z,0.23
2018-02-07T05:36:22.058Z,0.17
2018-02-07T05:37:21.544Z,0.21
2018-02-07T05:39:18.535Z,0.26
2018-02-07T05:40:17.464Z,0.32
2018-02-07T05:42:13.360Z,0.20
2018-02-07T05:43:13.901Z,0.23
2018-02-07T05:45:08.313Z,0.21
2018-02-07T05:46:07.788Z,0.27
2018-02-07T05:48:02.224Z,0.23
2018-02-07T05:49:01.168Z,0.14
2018-02-07T05:50:57.141Z,0.31
2018-02-07T05:51:57.094Z,0.27
2018-02-07T05:53:53.526Z,0.27
2018-02-07T05:54:52.990Z,0.24
2018-02-07T05:56:48.931Z,0.26
2018-02-07T05:57:48.924Z,0.27
2018-02-07T05:59:45.349Z,0.20
2018-02-07T06:00:44.821Z,0.26
2018-02-07T06:02:40.780Z,0.24
2018-02-07T06:03:40.724Z,0.27
2018-02-07T06:05:36.694Z,0.23
2018-02-07T06:06:37.167Z,0.23
2018-02-07T06:08:32.556Z,0.17
2018-02-07T06:09:32.530Z,0.16
2018-02-07T06:11:25.979Z,0.23
2018-02-07T06:12:26.469Z,0.20
2018-02-07T06:14:21.867Z,0.19
2018-02-07T06:15:21.873Z,0.10
2018-02-07T06:17:19.285Z,0.10
2018-02-07T06:18:17.783Z,0.16
2018-02-07T06:20:13.211Z,0.16
2018-02-07T06:21:12.745Z,0.16
2018-02-07T06:23:07.105Z,0.20
2018-02-07T06:24:06.595Z,0.19
2018-02-07T06:26:02.524Z,0.10
2018-02-07T06:27:02.507Z,0.14
2018-02-07T06:28:58.480Z,0.09
2018-02-07T06:29:58.454Z,0.06
2018-02-07T06:31:54.373Z,0.10
2018-02-07T06:32:54.350Z,0.10
2018-02-07T06:34:49.297Z,0.06
2018-02-07T06:35:48.771Z,0.08
2018-02-07T06:37:44.717Z,0.03
2018-02-07T06:38:44.657Z,0.06
2018-02-07T06:40:38.586Z,0.09
2018-02-07T06:41:38.076Z,0.03
2018-02-07T06:43:35.007Z,0.03
2018-02-07T06:44:34.541Z,0.01
2018-02-07T06:46:30.454Z,-0.01
2018-02-07T06:47:29.944Z,-0.02
2018-02-07T06:49:25.862Z,0.03
2018-02-07T06:50:26.373Z,0.05
2018-02-07T06:52:22.285Z,0.06
2018-02-07T06:53:21.756Z,0.14
2018-02-07T06:55:17.718Z,0.06
2018-02-07T06:56:18.207Z,0.16
2018-02-07T06:58:13.640Z,0.08
2018-02-07T06:59:14.105Z,0.14
2018-02-07T07:01:09.507Z,0.19
2018-02-07T07:02:09.985Z,0.14
2018-02-07T07:04:05.380Z,0.10
2018-02-07T07:05:05.364Z,0.23
2018-02-07T07:07:01.360Z,0.26
2018-02-07T07:08:01.323Z,0.23
2018-02-07T07:09:57.785Z,0.24
2018-02-07T07:10:58.200Z,0.24
2018-02-07T07:12:54.182Z,0.16
2018-02-07T07:13:53.148Z,0.37
2018-02-07T07:15:50.084Z,0.28
2018-02-07T07:16:49.113Z,0.32
2018-02-07T07:18:44.991Z,0.35
2018-02-07T07:19:44.970Z,0.34
2018-02-07T07:21:43.912Z,0.31
2018-02-07T07:22:43.011Z,0.39
2018-02-07T07:24:38.937Z,0.37
2018-02-07T07:25:38.926Z,0.35
2018-02-07T07:27:33.866Z,0.37
2018-02-07T07:28:33.380Z,0.34
2018-02-07T07:30:29.311Z,0.34
2018-02-07T07:31:29.298Z,0.31
2018-02-07T07:33:23.744Z,0.38
2018-02-07T07:34:24.241Z,0.39
2018-02-07T07:36:18.668Z,0.44
2018-02-07T07:37:18.141Z,0.48
2018-02-07T07:39:14.062Z,0.53
2018-02-07T07:40:14.081Z,0.45
2018-02-07T07:42:10.509Z,0.44
2018-02-07T07:43:09.956Z,0.42
2018-02-07T07:45:04.432Z,0.44
2018-02-07T07:46:04.364Z,0.44
2018-02-07T07:47:58.309Z,0.47
2018-02-07T07:48:57.780Z,0.48
2018-02-07T07:50:54.225Z,0.57
2018-02-07T07:51:54.652Z,0.58
2018-02-07T07:53:48.671Z,0.60
2018-02-07T07:54:48.648Z,0.58
2018-02-07T07:56:44.584Z,0.63
2018-02-07T07:57:45.062Z,0.58
2018-02-07T07:59:40.019Z,0.61
2018-02-07T08:00:40.555Z,0.61
2018-02-07T08:02:36.454Z,0.61
2018-02-07T08:03:35.935Z,0.63
2018-02-07T08:05:33.907Z,0.69
2018-02-07T08:06:33.857Z,0.69
2018-02-07T08:08:29.805Z,0.75
2018-02-07T08:09:30.298Z,0.75
2018-02-07T08:11:26.195Z,0.92
2018-02-07T08:12:25.674Z,0.78
2018-02-07T08:14:21.556Z,0.96
2018-02-07T08:15:21.553Z,0.89
2018-02-07T08:17:17.508Z,0.93
2018-02-07T08:18:18.001Z,0.93
2018-02-07T08:20:13.375Z,1.02
2018-02-07T08:21:13.382Z,0.99
2018-02-07T08:23:10.331Z,0.99
2018-02-07T08:24:09.289Z,1.02
2018-02-07T08:26:05.728Z,0.96
2018-02-07T08:27:05.299Z,0.92
2018-02-07T08:29:01.670Z,0.92
2018-02-07T08:30:01.158Z,0.92
2018-02-07T08:31:57.116Z,0.94
2018-02-07T08:32:57.060Z,0.94
2018-02-07T08:34:53.007Z,0.94
2018-02-07T08:35:52.996Z,0.96
2018-02-07T08:37:48.913Z,0.89
2018-02-07T08:38:48.864Z,0.94
2018-02-07T08:40:44.796Z,0.93
2018-02-07T08:41:46.319Z,1.04
2018-02-07T08:43:40.711Z,1.04
2018-02-07T08:44:40.708Z,1.18
2018-02-07T08:46:38.158Z,1.11
2018-02-07T08:47:36.640Z,1.21
2018-02-07T08:49:32.569Z,1.33
2018-02-07T08:50:32.534Z,1.36
2018-02-07T08:52:28.966Z,1.39
2018-02-07T08:53:28.434Z,1.42
2018-02-07T08:55:24.387Z,1.50
2018-02-07T08:56:24.335Z,1.54
2018-02-07T08:58:20.308Z,1.48
2018-02-07T08:59:20.826Z,1.48
2018-02-07T09:01:17.682Z,1.53
2018-02-07T09:02:17.028Z,1.66
2018-02-07T09:04:12.947Z,1.56
2018-02-07T09:05:13.465Z,1.66
2018-02-07T09:07:08.937Z,1.66
2018-02-07T09:08:07.360Z,1.76
2018-02-07T09:10:03.808Z,1.87
2018-02-07T09:11:03.318Z,1.78
2018-02-07T09:13:00.163Z,1.86
2018-02-07T09:13:59.745Z,1.72
2018-02-07T09:15:55.649Z,1.72
2018-02-07T09:16:55.125Z,1.65
2018-02-07T09:18:51.085Z,1.64
2018-02-07T09:19:51.063Z,1.58
2018-02-07T09:21:46.962Z,1.57
2018-02-07T09:22:46.953Z,1.54
2018-02-07T09:24:43.169Z,1.61
2018-02-07T09:25:42.876Z,1.60
2018-02-07T09:27:38.879Z,1.64
2018-02-07T09:28:38.835Z,1.53
2018-02-07T09:30:34.777Z,1.61
2018-02-07T09:31:34.729Z,1.57
2018-02-07T09:33:30.646Z,1.58
2018-02-07T09:34:30.641Z,1.54
2018-02-07T09:36:26.584Z,1.54
2018-02-07T09:37:26.581Z,1.47
2018-02-07T09:39:23.445Z,1.35
2018-02-07T09:40:22.478Z,1.39
2018-02-07T09:42:18.923Z,1.20
2018-02-07T09:43:18.918Z,1.18
2018-02-07T09:45:14.324Z,1.17
2018-02-07T09:46:14.323Z,1.15
2018-02-07T09:48:13.583Z,1.28
2018-02-07T09:49:13.592Z,1.26
2018-02-07T09:51:10.037Z,1.14
2018-02-07T09:52:09.515Z,1.07
2018-02-07T09:54:05.953Z,1.20
2018-02-07T09:55:05.428Z,1.07
2018-02-07T09:57:01.358Z,1.17
2018-02-07T09:58:01.340Z,1.17
2018-02-07T09:59:57.267Z,1.21
2018-02-07T10:00:57.299Z,1.21
2018-02-07T10:02:53.239Z,1.24
2018-02-07T10:03:53.189Z,1.33
2018-02-07T10:05:50.140Z,1.38
2018-02-07T10:06:49.634Z,1.44
2018-02-07T10:08:45.075Z,1.47
2018-02-07T10:09:45.586Z,1.53
2018-02-07T10:11:43.072Z,1.57
2018-02-07T10:12:43.060Z,1.54
2018-02-07T10:14:39.007Z,1.65
2018-02-07T10:15:39.003Z,1.58
2018-02-07T10:17:34.922Z,1.72
2018-02-07T10:18:34.920Z,1.66
2018-02-07T10:20:30.816Z,1.69
2018-02-07T10:21:30.811Z,1.69
2018-02-07T10:23:27.754Z,1.69
2018-02-07T10:24:26.754Z,1.72
2018-02-07T10:26:22.716Z,1.75
2018-02-07T10:27:22.654Z,1.71
2018-02-07T10:29:18.652Z,1.66
2018-02-07T10:30:18.583Z,1.74
2018-02-07T10:32:14.490Z,1.82
2018-02-07T10:33:14.490Z,1.83
2018-02-07T10:35:10.435Z,1.89
2018-02-07T10:36:10.954Z,1.89
2018-02-07T10:38:06.384Z,1.97
2018-02-07T10:39:06.316Z,1.93
2018-02-07T10:41:02.755Z,2.09
2018-02-07T10:42:02.236Z,2.05
2018-02-07T10:43:58.692Z,2.16
2018-02-07T10:44:58.150Z,2.16
2018-02-07T10:46:54.062Z,2.16
2018-02-07T10:47:54.082Z,2.22
2018-02-07T10:49:52.543Z,2.30
2018-02-07T10:50:52.121Z,2.38
2018-02-07T10:52:48.036Z,2.49
2018-02-07T10:53:48.016Z,2.54
2018-02-07T10:55:43.936Z,2.73
2018-02-07T10:56:43.933Z,2.78
2018-02-07T10:58:40.414Z,2.96
2018-02-07T10:59:39.830Z,3.11
2018-02-07T11:01:36.768Z,3.03
2018-02-07T11:02:35.726Z,3.16
2018-02-07T11:04:31.764Z,3.02
2018-02-07T11:05:31.737Z,3.06
2018-02-07T11:07:27.676Z,3.11
2018-02-07T11:08:28.174Z,3.16
2018-02-07T11:10:23.661Z,3.16
2018-02-07T11:11:23.637Z,3.16
2018-02-07T11:13:21.060Z,3.19
2018-02-07T11:14:19.531Z,3.13
2018-02-07T11:16:15.488Z,3.11
2018-02-07T11:17:15.456Z,3.06
2018-02-07T11:19:13.390Z,3.11
2018-02-07T11:20:13.908Z,3.17
2018-02-07T11:22:10.317Z,3.14
2018-02-07T11:23:09.293Z,3.11
2018-02-07T11:25:05.728Z,3.14
2018-02-07T11:26:05.206Z,3.13
2018-02-07T11:28:01.104Z,3.14
2018-02-07T11:29:01.104Z,3.08
2018-02-07T11:30:57.051Z,3.13
2018-02-07T11:31:57.025Z,2.99
2018-02-07T11:33:52.971Z,3.03
2018-02-07T11:34:53.469Z,3.03
2018-02-07T11:36:48.920Z,3.03
2018-02-07T11:37:48.899Z,3.11
2018-02-07T11:39:45.350Z,3.02
2018-02-07T11:40:45.360Z,2.99
2018-02-07T11:42:41.319Z,2.87
2018-02-07T11:43:40.761Z,2.83
2018-02-07T11:45:36.683Z,2.73
2018-02-07T11:46:36.687Z,2.72
2018-02-07T11:48:32.582Z,2.84
2018-02-07T11:49:32.572Z,2.70
2018-02-07T11:51:29.029Z,2.73
2018-02-07T11:52:28.489Z,2.62
2018-02-07T11:54:24.421Z,2.55
2018-02-07T11:55:24.956Z,2.45
2018-02-07T11:57:20.378Z,2.49
2018-02-07T11:58:20.343Z,2.51
2018-02-07T12:00:16.323Z,2.48
2018-02-07T12:01:16.803Z,2.55
2018-02-07T12:03:12.713Z,2.55
2018-02-07T12:04:12.190Z,2.58
2018-02-07T12:06:09.642Z,2.51
2018-02-07T12:07:08.110Z,2.51
2018-02-07T12:09:05.554Z,2.51
2018-02-07T12:10:04.551Z,2.69
2018-02-07T12:11:59.957Z,2.59
2018-02-07T12:12:59.973Z,2.63
2018-02-07T12:14:55.890Z,2.70
2018-02-07T12:15:56.417Z,2.77
2018-02-07T12:17:51.784Z,2.76
2018-02-07T12:18:51.784Z,2.90
2018-02-07T12:20:48.258Z,2.93
2018-02-07T12:21:47.686Z,2.99
2018-02-07T12:23:43.602Z,3.20
2018-02-07T12:24:43.593Z,3.16
2018-02-07T12:26:39.568Z,3.13
2018-02-07T12:27:39.533Z,3.34
2018-02-07T12:29:35.969Z,3.29
2018-02-07T12:30:35.969Z,3.27
2018-02-07T12:32:31.414Z,3.40
2018-02-07T12:33:31.372Z,3.40
2018-02-07T12:35:27.369Z,3.37
2018-02-07T12:36:28.822Z,3.20
2018-02-07T12:38:23.186Z,3.29
2018-02-07T12:39:23.191Z,3.13
2018-02-07T12:41:19.115Z,3.16
2018-02-07T12:42:19.106Z,3.17
2018-02-07T12:44:15.552Z,3.02
2018-02-07T12:45:15.027Z,3.11
2018-02-07T12:47:13.102Z,3.09
2018-02-07T12:48:13.064Z,3.19
2018-02-07T12:50:09.516Z,3.30
2018-02-07T12:51:09.526Z,3.40
2018-02-07T12:53:06.936Z,3.53
2018-02-07T12:54:04.925Z,3.54
2018-02-07T12:56:01.371Z,3.57
2018-02-07T12:57:00.861Z,3.58
2018-02-07T12:58:57.305Z,3.39
2018-02-07T12:59:56.792Z,3.39
2018-02-07T13:01:52.750Z,3.56
2018-02-07T13:02:53.236Z,3.51
2018-02-07T13:04:50.167Z,3.60
2018-02-07T13:05:49.621Z,3.58
2018-02-07T13:07:45.607Z,3.43
2018-02-07T13:08:45.548Z,3.40
2018-02-07T13:10:41.970Z,3.51
2018-02-07T13:11:41.442Z,3.53
2018-02-07T13:13:37.397Z,3.57
2018-02-07T13:14:37.373Z,3.53
2018-02-07T13:16:33.818Z,3.58
2018-02-07T13:17:33.273Z,3.56
2018-02-07T13:19:29.716Z,3.66
2018-02-07T13:20:29.203Z,3.67
2018-02-07T13:22:25.111Z,3.57
2018-02-07T13:23:25.113Z,3.48
2018-02-07T13:25:21.563Z,3.53
2018-02-07T13:26:21.560Z,3.58
2018-02-07T13:28:16.977Z,3.30
2018-02-07T13:29:16.933Z,3.32
2018-02-07T13:31:12.855Z,3.19
2018-02-07T13:32:12.845Z,3.14
2018-02-07T13:34:09.315Z,3.23
2018-02-07T13:35:09.727Z,3.24
2018-02-07T13:37:05.265Z,3.30
2018-02-07T13:38:04.736Z,3.27
2018-02-07T13:40:02.217Z,3.43
2018-02-07T13:41:01.195Z,3.45
2018-02-07T13:42:56.592Z,3.45
2018-02-07T13:43:57.107Z,3.39
2018-02-07T13:45:53.037Z,3.34
2018-02-07T13:46:52.519Z,3.27
2018-02-07T13:48:48.485Z,3.26
2018-02-07T13:49:48.467Z,3.24
2018-02-07T13:51:44.408Z,3.17
2018-02-07T13:52:45.335Z,3.13
2018-02-07T13:54:40.318Z,3.11
2018-02-07T13:55:40.312Z,3.13
2018-02-07T13:57:36.271Z,3.17
2018-02-07T13:58:36.271Z,3.27
2018-02-07T14:00:33.700Z,3.23
2018-02-07T14:01:32.176Z,3.27
2018-02-07T14:03:28.642Z,3.32
2018-02-07T14:04:28.129Z,3.43
2018-02-07T14:06:24.575Z,3.42
2018-02-07T14:07:24.577Z,3.57
2018-02-07T14:09:19.980Z,3.54
2018-02-07T14:10:20.498Z,3.56
2018-02-07T14:12:15.955Z,3.53
2018-02-07T14:13:15.893Z,3.51
2018-02-07T14:15:11.852Z,3.49
2018-02-07T14:16:12.359Z,3.57
2018-02-07T14:18:09.687Z,3.57
2018-02-07T14:19:10.257Z,3.61
2018-02-07T14:21:05.615Z,3.58
2018-02-07T14:22:05.599Z,3.53
2018-02-07T14:24:02.545Z,3.54
2018-02-07T14:25:02.563Z,3.54
2018-02-07T14:26:57.584Z,3.54
2018-02-07T14:27:58.036Z,3.57
2018-02-07T14:29:53.492Z,3.53
2018-02-07T14:30:53.448Z,3.56
2018-02-07T14:32:49.405Z,3.58
2018-02-07T14:33:49.377Z,3.48
2018-02-07T14:35:45.842Z,3.45
2018-02-07T14:36:45.279Z,3.48
2018-02-07T14:38:41.260Z,3.39
2018-02-07T14:39:41.184Z,3.27
2018-02-07T14:41:37.114Z,3.35
2018-02-07T14:42:37.617Z,3.29
2018-02-07T14:44:40.183Z,3.32
2018-02-07T14:46:50.554Z,3.43
2018-02-07T14:49:06.504Z,3.26
2018-02-07T14:50:06.480Z,3.20
2018-02-07T14:52:02.395Z,3.32
2018-02-07T14:53:02.930Z,3.23
2018-02-07T14:54:58.831Z,3.13
2018-02-07T14:55:58.343Z,3.26
2018-02-07T14:57:54.245Z,3.13
2018-02-07T14:58:54.209Z,3.16
2018-02-07T15:00:50.675Z,3.16
2018-02-07T15:01:51.153Z,3.21
2018-02-07T15:03:46.182Z,3.11
2018-02-07T15:04:46.134Z,3.16
2018-02-07T15:06:42.087Z,3.17
2018-02-07T15:07:42.043Z,3.17
2018-02-07T15:09:38.485Z,3.20
2018-02-07T15:10:37.966Z,3.24
2018-02-07T15:12:33.965Z,3.29
2018-02-07T15:13:33.974Z,3.27
2018-02-07T15:15:30.927Z,3.30
2018-02-07T15:16:29.900Z,3.37
2018-02-07T15:18:28.372Z,3.32
2018-02-07T15:19:28.355Z,3.21
2018-02-07T15:21:23.938Z,3.32
2018-02-07T15:22:23.940Z,3.39
2018-02-07T15:24:20.382Z,3.29
2018-02-07T15:25:19.846Z,3.29
2018-02-07T15:27:17.291Z,3.34
2018-02-07T15:28:16.289Z,3.27
2018-02-07T15:30:11.682Z,3.39
2018-02-07T15:31:11.680Z,3.45
2018-02-07T15:33:08.127Z,3.32
2018-02-07T15:34:07.618Z,3.35
2018-02-07T15:36:03.567Z,3.35
2018-02-07T15:37:03.546Z,3.35
2018-02-07T15:38:59.467Z,3.21
2018-02-07T15:39:59.446Z,3.19
2018-02-07T15:41:55.889Z,3.13
2018-02-07T15:42:55.377Z,3.27
2018-02-07T15:44:51.442Z,3.30
2018-02-07T15:45:52.343Z,3.21
2018-02-07T15:47:47.331Z,3.27
2018-02-07T15:48:47.304Z,3.19
2018-02-07T15:50:44.251Z,3.13
2018-02-07T15:51:43.237Z,3.11
2018-02-07T15:53:41.177Z,3.14
2018-02-07T15:54:41.681Z,3.06
2018-02-07T15:56:37.118Z,3.13
2018-02-07T15:57:37.126Z,3.02
2018-02-07T15:59:33.041Z,3.11
2018-02-07T16:00:33.031Z,2.99
2018-02-07T16:02:29.010Z,3.01
2018-02-07T16:03:29.036Z,3.03
2018-02-07T16:05:24.983Z,2.98
2018-02-07T16:06:24.934Z,2.98
2018-02-07T16:08:20.906Z,2.99
2018-02-07T16:09:21.407Z,2.98
2018-02-07T16:11:18.264Z,2.90
2018-02-07T16:12:18.263Z,2.91
2018-02-07T16:14:12.784Z,2.91
2018-02-07T16:15:12.645Z,2.80
2018-02-07T16:17:09.582Z,2.72
2018-02-07T16:18:08.569Z,2.77
2018-02-07T16:20:05.515Z,2.73
2018-02-07T16:21:04.499Z,2.70
2018-02-07T16:23:00.461Z,2.67
2018-02-07T16:24:00.946Z,2.66
2018-02-07T16:25:56.877Z,2.66
2018-02-07T16:26:56.375Z,2.59
2018-02-07T16:28:52.320Z,2.52
2018-02-07T16:29:52.277Z,2.52
2018-02-07T16:31:50.729Z,2.65
2018-02-07T16:32:50.198Z,2.55
2018-02-07T16:34:49.136Z,2.47
2018-02-07T16:35:48.208Z,2.45
2018-02-07T16:37:44.168Z,2.40
2018-02-07T16:38:44.148Z,2.41
2018-02-07T16:40:40.273Z,2.40
2018-02-07T16:41:40.264Z,2.33
2018-02-07T16:43:38.569Z,2.30
2018-02-07T16:44:39.236Z,2.38
2018-02-07T16:46:34.963Z,2.36
2018-02-07T16:47:34.451Z,2.26
2018-02-07T16:49:56.465Z,2.33
2018-02-07T16:50:56.199Z,2.38
2018-02-07T16:52:52.128Z,2.29
2018-02-07T16:53:52.640Z,2.22
2018-02-07T16:55:48.541Z,2.15
2018-02-07T16:56:48.025Z,2.18
2018-02-07T16:58:44.958Z,2.18
2018-02-07T16:59:44.457Z,2.08
2018-02-07T17:01:39.918Z,2.05
2018-02-07T17:02:39.923Z,2.06
2018-02-07T17:04:35.844Z,2.05
2018-02-07T17:05:35.830Z,2.08
2018-02-07T17:07:32.280Z,2.02
2018-02-07T17:08:31.766Z,2.05
2018-02-07T17:10:27.732Z,2.02
2018-02-07T17:11:27.676Z,1.98
2018-02-07T17:13:24.626Z,1.90
2018-02-07T17:14:25.130Z,1.76
2018-02-07T17:16:19.605Z,1.78
2018-02-07T17:17:19.534Z,1.69
2018-02-07T17:19:16.455Z,1.78
2018-02-07T17:20:15.407Z,1.74
2018-02-07T17:22:11.370Z,1.69
2018-02-07T17:23:11.331Z,1.66
2018-02-07T17:25:08.787Z,1.68
2018-02-07T17:26:07.781Z,1.68
2018-02-07T17:28:03.689Z,1.61
2018-02-07T17:29:03.154Z,1.58
2018-02-07T17:30:59.039Z,1.65
2018-02-07T17:31:59.051Z,1.61
2018-02-07T17:33:54.988Z,1.65
2018-02-07T17:34:54.952Z,1.72
2018-02-07T17:36:51.918Z,1.68
2018-02-07T17:37:51.753Z,1.56
2018-02-07T17:39:47.719Z,1.57
2018-02-07T17:40:47.654Z,1.53
2018-02-07T17:42:43.617Z,1.57
2018-02-07T17:43:43.582Z,1.56
2018-02-07T17:45:39.499Z,1.58
2018-02-07T17:46:39.502Z,1.60
2018-02-07T17:48:36.985Z,1.54
2018-02-07T17:49:36.217Z,1.56
2018-02-07T17:51:34.264Z,1.54
2018-02-07T17:52:35.166Z,1.50
2018-02-07T17:54:42.197Z,1.44
2018-02-07T17:55:31.288Z,1.50
2018-02-07T17:57:27.729Z,1.42
2018-02-07T17:58:27.208Z,1.42
2018-02-07T18:00:23.148Z,1.36
2018-02-07T18:01:23.103Z,1.29
2018-02-07T18:03:20.034Z,1.32
2018-02-07T18:04:19.155Z,1.33
2018-02-07T18:06:15.573Z,1.33
2018-02-07T18:07:15.074Z,1.29
2018-02-07T18:09:11.495Z,1.21
2018-02-07T18:10:10.980Z,1.21
2018-02-07T18:12:08.416Z,1.15
2018-02-07T18:13:07.440Z,1.17
2018-02-07T18:15:04.930Z,1.12
2018-02-07T18:16:04.926Z,1.18
2018-02-07T18:18:03.374Z,1.15
2018-02-07T18:19:02.910Z,1.08
2018-02-07T18:20:59.365Z,1.08
2018-02-07T18:21:58.844Z,1.02
2018-02-07T18:23:55.322Z,1.00
2018-02-07T18:24:54.737Z,1.04
2018-02-07T18:26:50.655Z,1.00
2018-02-07T18:27:51.291Z,0.96
2018-02-07T18:29:46.583Z,0.94
2018-02-07T18:30:46.576Z,0.96
2018-02-07T18:32:43.528Z,0.97
2018-02-07T18:33:42.549Z,0.85
2018-02-07T18:35:38.485Z,0.84
2018-02-07T18:36:39.403Z,0.82
2018-02-07T18:38:34.892Z,0.81
2018-02-07T18:39:34.349Z,0.84
2018-02-07T18:41:30.279Z,0.82
2018-02-07T18:42:30.259Z,0.81
2018-02-07T18:44:26.694Z,0.89
2018-02-07T18:45:26.175Z,0.81
2018-02-07T18:47:23.602Z,0.82
2018-02-07T18:48:22.073Z,0.82
2018-02-07T18:50:21.005Z,0.69
2018-02-07T18:51:20.002Z,0.75
2018-02-07T18:53:15.913Z,0.78
2018-02-07T18:54:15.898Z,0.79
2018-02-07T18:56:12.370Z,0.74
2018-02-07T18:57:12.846Z,0.75
2018-02-07T18:59:07.892Z,0.72
2018-02-07T19:00:07.885Z,0.63
2018-02-07T19:02:03.864Z,0.64
2018-02-07T19:03:03.795Z,0.66
2018-02-07T19:04:59.746Z,0.66
2018-02-07T19:05:59.740Z,0.69
2018-02-07T19:07:56.176Z,0.64
2018-02-07T19:08:55.614Z,0.61
2018-02-07T19:10:51.568Z,0.61
2018-02-07T19:11:52.103Z,0.58
2018-02-07T19:13:50.476Z,0.47
2018-02-07T19:14:47.973Z,0.50
2018-02-07T19:16:44.369Z,0.47
2018-02-07T19:17:43.400Z,0.50
2018-02-07T19:19:39.354Z,0.44
2018-02-07T19:20:39.324Z,0.39
2018-02-07T19:22:35.284Z,0.31
2018-02-07T19:23:35.788Z,0.34
2018-02-07T19:25:32.675Z,0.32
2018-02-07T19:26:31.686Z,0.35
2018-02-07T19:28:27.110Z,0.39
2018-02-07T19:29:27.607Z,0.39
2018-02-07T19:31:23.003Z,0.48
2018-02-07T19:32:22.959Z,0.45
2018-02-07T19:34:19.396Z,0.45